sensor_id;sensor_type;location;lat;lon;timestamp;pressure;altitude;pressure_sealevel;temperature;humidity
34073;BME280;20346;52.702;16.886;2023-02-23T00:00:11;101158.16;;;0.36;70.62
34073;BME280;20346;52.702;16.886;2023-02-23T00:03:07;101153.19;;;0.34;70.67
34073;BME280;20346;52.702;16.886;2023-02-23T00:05:53;101153.38;;;0.35;70.66
34073;BME280;20346;52.702;16.886;2023-02-23T00:08:40;101151.15;;;0.34;70.70
34073;BME280;20346;52.702;16.886;2023-02-23T00:11:26;101148.09;;;0.33;70.75
34073;BME280;20346;52.702;16.886;2023-02-23T00:14:13;101148.05;;;0.32;70.64
34073;BME280;20346;52.702;16.886;2023-02-23T00:16:59;101146.15;;;0.31;70.63
34073;BME280;20346;52.702;16.886;2023-02-23T00:19:46;101145.96;;;0.31;70.68
34073;BME280;20346;52.702;16.886;2023-02-23T00:22:33;101144.59;;;0.30;70.66
34073;BME280;20346;52.702;16.886;2023-02-23T00:25:20;101141.81;;;0.28;70.67
34073;BME280;20346;52.702;16.886;2023-02-23T00:28:06;101140.60;;;0.28;70.68
34073;BME280;20346;52.702;16.886;2023-02-23T00:30:52;101142.11;;;0.27;70.75
34073;BME280;20346;52.702;16.886;2023-02-23T00:33:39;101136.32;;;0.26;70.68
34073;BME280;20346;52.702;16.886;2023-02-23T00:36:27;101137.76;;;0.24;70.69
34073;BME280;20346;52.702;16.886;2023-02-23T00:39:14;101136.05;;;0.24;70.75
34073;BME280;20346;52.702;16.886;2023-02-23T00:42:18;101135.85;;;0.22;70.73
34073;BME280;20346;52.702;16.886;2023-02-23T00:45:04;101140.76;;;0.22;70.74
34073;BME280;20346;52.702;16.886;2023-02-23T00:47:55;101138.16;;;0.21;70.73
34073;BME280;20346;52.702;16.886;2023-02-23T00:50:41;101137.65;;;0.21;70.72
34073;BME280;20346;52.702;16.886;2023-02-23T00:53:28;101134.88;;;0.19;70.75
34073;BME280;20346;52.702;16.886;2023-02-23T00:56:14;101136.73;;;0.19;70.75
34073;BME280;20346;52.702;16.886;2023-02-23T00:59:01;101136.89;;;0.19;70.74
34073;BME280;20346;52.702;16.886;2023-02-23T01:01:47;101135.39;;;0.19;70.80
34073;BME280;20346;52.702;16.886;2023-02-23T01:04:33;101137.25;;;0.19;70.79
34073;BME280;20346;52.702;16.886;2023-02-23T01:07:19;101130.79;;;0.19;70.80
34073;BME280;20346;52.702;16.886;2023-02-23T01:10:06;101127.20;;;0.18;70.83
34073;BME280;20346;52.702;16.886;2023-02-23T01:13:04;101120.55;;;0.16;70.82
34073;BME280;20346;52.702;16.886;2023-02-23T01:15:51;101121.39;;;0.16;70.86
34073;BME280;20346;52.702;16.886;2023-02-23T01:18:40;101118.85;;;0.17;70.81
34073;BME280;20346;52.702;16.886;2023-02-23T01:21:27;101116.13;;;0.16;70.83
34073;BME280;20346;52.702;16.886;2023-02-23T01:24:13;101117.77;;;0.15;70.85
34073;BME280;20346;52.702;16.886;2023-02-23T01:27:00;101118.60;;;0.14;70.88
34073;BME280;20346;52.702;16.886;2023-02-23T01:29:46;101117.02;;;0.13;70.81
34073;BME280;20346;52.702;16.886;2023-02-23T01:32:33;101112.86;;;0.15;70.85
34073;BME280;20346;52.702;16.886;2023-02-23T01:35:20;101109.66;;;0.15;70.90
34073;BME280;20346;52.702;16.886;2023-02-23T01:38:06;101104.52;;;0.14;70.90
34073;BME280;20346;52.702;16.886;2023-02-23T01:40:52;101103.20;;;0.10;70.86
34073;BME280;20346;52.702;16.886;2023-02-23T01:43:54;101098.23;;;0.08;70.93
34073;BME280;20346;52.702;16.886;2023-02-23T01:46:44;101096.69;;;0.08;70.93
34073;BME280;20346;52.702;16.886;2023-02-23T01:49:31;101094.64;;;0.08;70.98
34073;BME280;20346;52.702;16.886;2023-02-23T01:52:19;101088.65;;;0.06;70.97
34073;BME280;20346;52.702;16.886;2023-02-23T01:55:05;101089.08;;;0.04;70.97
34073;BME280;20346;52.702;16.886;2023-02-23T01:58:12;101088.67;;;0.02;70.96
34073;BME280;20346;52.702;16.886;2023-02-23T02:01:00;101085.40;;;-0.01;70.96
34073;BME280;20346;52.702;16.886;2023-02-23T02:03:50;101085.33;;;-0.03;71.03
34073;BME280;20346;52.702;16.886;2023-02-23T02:06:39;101083.54;;;-0.06;71.04
34073;BME280;20346;52.702;16.886;2023-02-23T02:09:25;101081.62;;;-0.07;71.12
34073;BME280;20346;52.702;16.886;2023-02-23T02:12:13;101079.35;;;-0.10;71.05
34073;BME280;20346;52.702;16.886;2023-02-23T02:14:59;101081.15;;;-0.11;71.04
34073;BME280;20346;52.702;16.886;2023-02-23T02:27:01;101074.98;;;-0.14;71.13
34073;BME280;20346;52.702;16.886;2023-02-23T02:36:02;101065.98;;;-0.14;71.11
34073;BME280;20346;52.702;16.886;2023-02-23T02:38:54;101059.83;;;-0.15;71.14
34073;BME280;20346;52.702;16.886;2023-02-23T02:41:58;101057.30;;;-0.15;71.22
34073;BME280;20346;52.702;16.886;2023-02-23T02:47:40;101059.27;;;-0.17;71.11
34073;BME280;20346;52.702;16.886;2023-02-23T02:50:34;101057.91;;;-0.17;71.25
34073;BME280;20346;52.702;16.886;2023-02-23T02:53:40;101051.45;;;-0.17;71.26
34073;BME280;20346;52.702;16.886;2023-02-23T02:56:28;101052.50;;;-0.16;71.28
34073;BME280;20346;52.702;16.886;2023-02-23T02:59:16;101052.19;;;-0.16;71.25
34073;BME280;20346;52.702;16.886;2023-02-23T03:02:21;101051.48;;;-0.17;71.30
34073;BME280;20346;52.702;16.886;2023-02-23T03:08:49;101046.23;;;-0.17;71.38
34073;BME280;20346;52.702;16.886;2023-02-23T03:12:10;101041.46;;;-0.17;71.34
34073;BME280;20346;52.702;16.886;2023-02-23T03:21:26;101030.94;;;-0.18;71.38
34073;BME280;20346;52.702;16.886;2023-02-23T03:24:54;101029.02;;;-0.19;71.46
34073;BME280;20346;52.702;16.886;2023-02-23T03:28:09;101024.25;;;-0.20;71.41
34073;BME280;20346;52.702;16.886;2023-02-23T03:34:38;101018.23;;;-0.22;71.40
34073;BME280;20346;52.702;16.886;2023-02-23T03:37:47;101016.38;;;-0.22;71.51
34073;BME280;20346;52.702;16.886;2023-02-23T03:40:53;101014.05;;;-0.21;71.55
34073;BME280;20346;52.702;16.886;2023-02-23T03:44:03;101013.88;;;-0.21;71.49
34073;BME280;20346;52.702;16.886;2023-02-23T03:47:10;101012.20;;;-0.20;71.54
34073;BME280;20346;52.702;16.886;2023-02-23T03:50:21;101006.79;;;-0.20;71.56
34073;BME280;20346;52.702;16.886;2023-02-23T03:53:32;101005.87;;;-0.18;71.56
34073;BME280;20346;52.702;16.886;2023-02-23T03:56:40;101003.29;;;-0.19;71.54
34073;BME280;20346;52.702;16.886;2023-02-23T03:59:50;101000.80;;;-0.18;71.60
34073;BME280;20346;52.702;16.886;2023-02-23T04:02:56;100995.58;;;-0.16;71.66
34073;BME280;20346;52.702;16.886;2023-02-23T04:06:03;100992.33;;;-0.17;71.49
34073;BME280;20346;52.702;16.886;2023-02-23T04:09:11;100990.92;;;-0.19;71.59
34073;BME280;20346;52.702;16.886;2023-02-23T04:15:34;100986.41;;;-0.17;71.59
34073;BME280;20346;52.702;16.886;2023-02-23T04:18:26;100985.04;;;-0.17;71.60
34073;BME280;20346;52.702;16.886;2023-02-23T04:21:13;100984.16;;;-0.18;71.60
34073;BME280;20346;52.702;16.886;2023-02-23T04:23:59;100978.38;;;-0.19;71.62
34073;BME280;20346;52.702;16.886;2023-02-23T04:26:45;100975.44;;;-0.21;71.61
34073;BME280;20346;52.702;16.886;2023-02-23T04:29:31;100977.61;;;-0.21;71.66
34073;BME280;20346;52.702;16.886;2023-02-23T04:32:17;100975.36;;;-0.23;71.69
34073;BME280;20346;52.702;16.886;2023-02-23T04:35:04;100972.91;;;-0.25;71.62
34073;BME280;20346;52.702;16.886;2023-02-23T04:37:51;100968.79;;;-0.27;71.82
34073;BME280;20346;52.702;16.886;2023-02-23T04:40:37;100968.25;;;-0.28;71.69
34073;BME280;20346;52.702;16.886;2023-02-23T04:43:23;100969.45;;;-0.27;71.77
34073;BME280;20346;52.702;16.886;2023-02-23T04:46:09;100967.91;;;-0.28;71.74
34073;BME280;20346;52.702;16.886;2023-02-23T04:48:55;100963.84;;;-0.28;71.76
34073;BME280;20346;52.702;16.886;2023-02-23T04:51:41;100961.95;;;-0.29;71.79
34073;BME280;20346;52.702;16.886;2023-02-23T04:54:27;100962.08;;;-0.30;71.84
34073;BME280;20346;52.702;16.886;2023-02-23T04:57:14;100960.15;;;-0.32;71.88
34073;BME280;20346;52.702;16.886;2023-02-23T05:00:00;100955.52;;;-0.34;71.86
34073;BME280;20346;52.702;16.886;2023-02-23T05:02:49;100951.92;;;-0.35;71.88
34073;BME280;20346;52.702;16.886;2023-02-23T05:05:35;100949.55;;;-0.35;71.91
34073;BME280;20346;52.702;16.886;2023-02-23T05:08:21;100946.30;;;-0.36;71.91
34073;BME280;20346;52.702;16.886;2023-02-23T05:11:08;100943.60;;;-0.36;71.85
34073;BME280;20346;52.702;16.886;2023-02-23T05:13:54;100942.73;;;-0.36;72.03
34073;BME280;20346;52.702;16.886;2023-02-23T05:16:41;100943.27;;;-0.36;71.93
34073;BME280;20346;52.702;16.886;2023-02-23T05:19:27;100940.69;;;-0.37;71.93
34073;BME280;20346;52.702;16.886;2023-02-23T05:22:13;100935.68;;;-0.39;71.91
34073;BME280;20346;52.702;16.886;2023-02-23T05:25:00;100931.87;;;-0.42;71.97
34073;BME280;20346;52.702;16.886;2023-02-23T05:27:46;100931.11;;;-0.44;72.05
34073;BME280;20346;52.702;16.886;2023-02-23T05:30:32;100929.51;;;-0.47;72.02
34073;BME280;20346;52.702;16.886;2023-02-23T05:33:18;100927.88;;;-0.50;72.06
34073;BME280;20346;52.702;16.886;2023-02-23T05:36:10;100928.66;;;-0.52;72.14
34073;BME280;20346;52.702;16.886;2023-02-23T05:38:56;100923.92;;;-0.52;72.14
34073;BME280;20346;52.702;16.886;2023-02-23T05:41:42;100919.14;;;-0.54;72.05
34073;BME280;20346;52.702;16.886;2023-02-23T05:44:28;100920.48;;;-0.54;72.15
34073;BME280;20346;52.702;16.886;2023-02-23T05:47:15;100917.55;;;-0.56;72.12
34073;BME280;20346;52.702;16.886;2023-02-23T05:50:01;100919.41;;;-0.56;72.15
34073;BME280;20346;52.702;16.886;2023-02-23T05:52:47;100915.85;;;-0.56;72.24
34073;BME280;20346;52.702;16.886;2023-02-23T05:55:34;100914.14;;;-0.56;72.10
34073;BME280;20346;52.702;16.886;2023-02-23T05:58:20;100913.10;;;-0.57;72.16
34073;BME280;20346;52.702;16.886;2023-02-23T06:01:06;100910.85;;;-0.59;72.31
34073;BME280;20346;52.702;16.886;2023-02-23T06:03:52;100908.98;;;-0.59;72.22
34073;BME280;20346;52.702;16.886;2023-02-23T06:06:39;100910.64;;;-0.60;72.21
34073;BME280;20346;52.702;16.886;2023-02-23T06:09:25;100909.62;;;-0.60;72.23
34073;BME280;20346;52.702;16.886;2023-02-23T06:12:11;100909.62;;;-0.60;72.29
34073;BME280;20346;52.702;16.886;2023-02-23T06:14:57;100911.55;;;-0.58;72.31
34073;BME280;20346;52.702;16.886;2023-02-23T06:17:43;100913.02;;;-0.55;72.26
34073;BME280;20346;52.702;16.886;2023-02-23T06:20:29;100912.10;;;-0.51;72.42
34073;BME280;20346;52.702;16.886;2023-02-23T06:23:15;100914.84;;;-0.50;72.35
34073;BME280;20346;52.702;16.886;2023-02-23T06:26:02;100918.81;;;-0.48;72.37
34073;BME280;20346;52.702;16.886;2023-02-23T06:28:48;100920.73;;;-0.46;72.49
34073;BME280;20346;52.702;16.886;2023-02-23T06:31:34;100920.52;;;-0.42;72.46
34073;BME280;20346;52.702;16.886;2023-02-23T06:34:20;100923.98;;;-0.40;72.47
34073;BME280;20346;52.702;16.886;2023-02-23T06:37:06;100920.67;;;-0.38;72.59
34073;BME280;20346;52.702;16.886;2023-02-23T06:39:53;100923.04;;;-0.32;72.53
34073;BME280;20346;52.702;16.886;2023-02-23T06:42:39;100921.30;;;-0.28;72.51
34073;BME280;20346;52.702;16.886;2023-02-23T06:45:25;100920.13;;;-0.23;72.55
34073;BME280;20346;52.702;16.886;2023-02-23T06:48:11;100922.07;;;-0.16;72.49
34073;BME280;20346;52.702;16.886;2023-02-23T06:50:58;100921.60;;;-0.04;72.60
34073;BME280;20346;52.702;16.886;2023-02-23T06:53:45;100920.41;;;0.13;72.62
34073;BME280;20346;52.702;16.886;2023-02-23T06:56:31;100920.94;;;0.30;72.73
34073;BME280;20346;52.702;16.886;2023-02-23T06:59:17;100924.84;;;0.53;72.78
34073;BME280;20346;52.702;16.886;2023-02-23T07:02:03;100922.73;;;0.81;72.68
34073;BME280;20346;52.702;16.886;2023-02-23T07:04:50;100918.50;;;1.12;72.73
34073;BME280;20346;52.702;16.886;2023-02-23T07:07:36;100917.30;;;1.44;72.65
34073;BME280;20346;52.702;16.886;2023-02-23T07:10:23;100919.34;;;1.72;72.58
34073;BME280;20346;52.702;16.886;2023-02-23T07:13:09;100917.36;;;1.95;72.56
34073;BME280;20346;52.702;16.886;2023-02-23T07:15:56;100915.92;;;2.15;72.57
34073;BME280;20346;52.702;16.886;2023-02-23T07:18:42;100916.15;;;2.24;72.45
34073;BME280;20346;52.702;16.886;2023-02-23T07:21:29;100913.98;;;2.26;72.39
34073;BME280;20346;52.702;16.886;2023-02-23T07:24:16;100911.94;;;2.34;72.54
34073;BME280;20346;52.702;16.886;2023-02-23T07:27:02;100913.77;;;2.47;72.59
34073;BME280;20346;52.702;16.886;2023-02-23T07:29:49;100906.26;;;2.63;72.66
34073;BME280;20346;52.702;16.886;2023-02-23T07:32:35;100904.66;;;2.77;72.51
34073;BME280;20346;52.702;16.886;2023-02-23T07:35:21;100899.13;;;2.81;72.39
34073;BME280;20346;52.702;16.886;2023-02-23T07:38:08;100890.92;;;2.88;72.60
34073;BME280;20346;52.702;16.886;2023-02-23T07:40:54;100886.17;;;2.97;72.52
34073;BME280;20346;52.702;16.886;2023-02-23T07:43:40;100882.72;;;3.14;72.76
34073;BME280;20346;52.702;16.886;2023-02-23T07:46:27;100881.73;;;3.35;72.54
34073;BME280;20346;52.702;16.886;2023-02-23T07:49:13;100878.77;;;3.52;72.74
34073;BME280;20346;52.702;16.886;2023-02-23T07:51:59;100881.14;;;3.72;72.70
34073;BME280;20346;52.702;16.886;2023-02-23T07:54:45;100879.23;;;3.82;72.41
34073;BME280;20346;52.702;16.886;2023-02-23T07:57:32;100876.20;;;3.94;72.81
34073;BME280;20346;52.702;16.886;2023-02-23T08:00:18;100876.98;;;4.13;72.55
34073;BME280;20346;52.702;16.886;2023-02-23T08:03:05;100871.02;;;4.28;72.67
34073;BME280;20346;52.702;16.886;2023-02-23T08:05:51;100868.42;;;4.50;72.76
34073;BME280;20346;52.702;16.886;2023-02-23T08:08:37;100860.56;;;4.64;72.61
34073;BME280;20346;52.702;16.886;2023-02-23T08:11:24;100863.68;;;4.84;72.57
34073;BME280;20346;52.702;16.886;2023-02-23T08:14:13;100865.39;;;5.00;72.55
34073;BME280;20346;52.702;16.886;2023-02-23T08:16:59;100862.13;;;5.14;72.64
34073;BME280;20346;52.702;16.886;2023-02-23T08:19:46;100860.74;;;5.33;72.58
34073;BME280;20346;52.702;16.886;2023-02-23T08:22:32;100859.46;;;5.42;72.45
34073;BME280;20346;52.702;16.886;2023-02-23T08:25:18;100859.02;;;5.30;72.37
34073;BME280;20346;52.702;16.886;2023-02-23T08:28:04;100857.18;;;5.36;72.54
34073;BME280;20346;52.702;16.886;2023-02-23T08:30:51;100861.05;;;5.29;72.39
34073;BME280;20346;52.702;16.886;2023-02-23T08:33:37;100857.13;;;5.10;72.44
34073;BME280;20346;52.702;16.886;2023-02-23T08:36:24;100854.16;;;5.04;72.69
34073;BME280;20346;52.702;16.886;2023-02-23T08:39:10;100853.34;;;4.91;72.57
34073;BME280;20346;52.702;16.886;2023-02-23T08:41:57;100849.62;;;4.79;72.71
34073;BME280;20346;52.702;16.886;2023-02-23T08:44:43;100847.59;;;4.64;72.66
34073;BME280;20346;52.702;16.886;2023-02-23T08:47:29;100845.97;;;4.56;72.75
34073;BME280;20346;52.702;16.886;2023-02-23T08:50:15;100846.91;;;4.50;72.71
34073;BME280;20346;52.702;16.886;2023-02-23T08:53:01;100843.15;;;4.36;72.60
34073;BME280;20346;52.702;16.886;2023-02-23T08:55:48;100838.80;;;4.29;72.77
34073;BME280;20346;52.702;16.886;2023-02-23T08:58:36;100835.19;;;4.27;72.71
34073;BME280;20346;52.702;16.886;2023-02-23T09:01:22;100837.59;;;4.29;72.76
34073;BME280;20346;52.702;16.886;2023-02-23T09:04:08;100834.57;;;4.32;72.70
34073;BME280;20346;52.702;16.886;2023-02-23T09:06:54;100829.98;;;4.35;72.46
34073;BME280;20346;52.702;16.886;2023-02-23T09:09:40;100828.61;;;4.33;72.60
34073;BME280;20346;52.702;16.886;2023-02-23T09:12:26;100829.66;;;4.36;72.63
34073;BME280;20346;52.702;16.886;2023-02-23T09:15:12;100827.80;;;4.37;72.60
34073;BME280;20346;52.702;16.886;2023-02-23T09:17:59;100824.81;;;4.30;72.42
34073;BME280;20346;52.702;16.886;2023-02-23T09:20:46;100820.00;;;4.27;72.49
34073;BME280;20346;52.702;16.886;2023-02-23T09:23:35;100819.86;;;4.29;72.48
34073;BME280;20346;52.702;16.886;2023-02-23T09:26:22;100821.73;;;4.29;72.22
34073;BME280;20346;52.702;16.886;2023-02-23T09:29:08;100820.52;;;4.28;72.45
34073;BME280;20346;52.702;16.886;2023-02-23T09:31:54;100821.95;;;4.34;72.49
34073;BME280;20346;52.702;16.886;2023-02-23T09:34:42;100817.86;;;4.34;72.37
34073;BME280;20346;52.702;16.886;2023-02-23T09:37:29;100821.45;;;4.35;72.36
34073;BME280;20346;52.702;16.886;2023-02-23T09:40:15;100817.58;;;4.39;72.30
34073;BME280;20346;52.702;16.886;2023-02-23T09:43:08;100814.56;;;4.42;72.33
34073;BME280;20346;52.702;16.886;2023-02-23T09:46:02;100817.75;;;4.52;72.34
34073;BME280;20346;52.702;16.886;2023-02-23T09:48:54;100816.31;;;4.61;72.39
34073;BME280;20346;52.702;16.886;2023-02-23T09:51:43;100813.33;;;4.71;72.25
34073;BME280;20346;52.702;16.886;2023-02-23T09:54:32;100808.98;;;4.81;72.21
34073;BME280;20346;52.702;16.886;2023-02-23T09:57:21;100802.70;;;4.84;72.00
34073;BME280;20346;52.702;16.886;2023-02-23T10:00:16;100799.84;;;4.88;72.19
34073;BME280;20346;52.702;16.886;2023-02-23T10:03:21;100798.89;;;4.95;72.10
34073;BME280;20346;52.702;16.886;2023-02-23T10:06:10;100799.43;;;4.97;72.04
34073;BME280;20346;52.702;16.886;2023-02-23T10:12:34;100793.52;;;5.04;72.02
34073;BME280;20346;52.702;16.886;2023-02-23T10:24:05;100775.36;;;5.22;71.92
34073;BME280;20346;52.702;16.886;2023-02-23T10:26:56;100769.08;;;5.26;71.91
34073;BME280;20346;52.702;16.886;2023-02-23T10:29:47;100770.98;;;5.31;71.91
34073;BME280;20346;52.702;16.886;2023-02-23T10:35:44;100769.77;;;5.49;72.00
34073;BME280;20346;52.702;16.886;2023-02-23T10:38:30;100766.92;;;5.60;71.89
34073;BME280;20346;52.702;16.886;2023-02-23T10:41:16;100759.48;;;5.72;71.94
34073;BME280;20346;52.702;16.886;2023-02-23T10:44:03;100762.79;;;5.85;71.84
34073;BME280;20346;52.702;16.886;2023-02-23T10:46:53;100759.10;;;5.93;71.88
34073;BME280;20346;52.702;16.886;2023-02-23T10:49:42;100756.75;;;6.03;71.73
34073;BME280;20346;52.702;16.886;2023-02-23T10:52:32;100748.25;;;6.14;71.84
34073;BME280;20346;52.702;16.886;2023-02-23T10:55:21;100748.10;;;6.25;71.76
34073;BME280;20346;52.702;16.886;2023-02-23T11:04:27;100729.17;;;6.56;71.64
34073;BME280;20346;52.702;16.886;2023-02-23T11:07:15;100727.99;;;6.60;71.71
34073;BME280;20346;52.702;16.886;2023-02-23T11:13:18;100722.36;;;6.70;71.53
34073;BME280;20346;52.702;16.886;2023-02-23T11:16:07;100714.65;;;6.71;71.56
34073;BME280;20346;52.702;16.886;2023-02-23T11:19:01;100711.23;;;6.71;71.54
34073;BME280;20346;52.702;16.886;2023-02-23T11:21:51;100711.40;;;6.75;71.57
34073;BME280;20346;52.702;16.886;2023-02-23T11:24:38;100705.40;;;6.74;71.46
34073;BME280;20346;52.702;16.886;2023-02-23T11:27:25;100706.27;;;6.74;71.55
34073;BME280;20346;52.702;16.886;2023-02-23T11:30:12;100701.80;;;6.75;71.51
34073;BME280;20346;52.702;16.886;2023-02-23T11:32:59;100690.33;;;6.72;71.34
34073;BME280;20346;52.702;16.886;2023-02-23T11:35:58;100689.81;;;6.67;71.32
34073;BME280;20346;52.702;16.886;2023-02-23T11:38:45;100687.91;;;6.64;71.49
34073;BME280;20346;52.702;16.886;2023-02-23T11:41:33;100679.19;;;6.65;71.41
34073;BME280;20346;52.702;16.886;2023-02-23T11:44:21;100675.24;;;6.63;71.27
34073;BME280;20346;52.702;16.886;2023-02-23T11:47:13;100673.70;;;6.62;71.35
34073;BME280;20346;52.702;16.886;2023-02-23T11:49:59;100669.59;;;6.67;71.35
34073;BME280;20346;52.702;16.886;2023-02-23T11:52:46;100666.86;;;6.68;71.36
34073;BME280;20346;52.702;16.886;2023-02-23T11:55:33;100665.49;;;6.71;71.39
34073;BME280;20346;52.702;16.886;2023-02-23T12:01:22;100657.41;;;6.83;71.31
34073;BME280;20346;52.702;16.886;2023-02-23T12:07:17;100642.67;;;6.88;71.24
34073;BME280;20346;52.702;16.886;2023-02-23T12:15:52;100637.52;;;7.04;71.23
34073;BME280;20346;52.702;16.886;2023-02-23T12:18:41;100639.91;;;7.11;71.18
34073;BME280;20346;52.702;16.886;2023-02-23T12:21:43;100640.77;;;7.15;71.21
34073;BME280;20346;52.702;16.886;2023-02-23T12:33:12;100625.34;;;7.16;71.02
34073;BME280;20346;52.702;16.886;2023-02-23T12:38:51;100620.86;;;7.20;71.04
34073;BME280;20346;52.702;16.886;2023-02-23T12:41:42;100618.47;;;7.21;70.89
34073;BME280;20346;52.702;16.886;2023-02-23T12:50:43;100603.14;;;7.33;71.05
34073;BME280;20346;52.702;16.886;2023-02-23T12:53:41;100602.97;;;7.36;71.01
34073;BME280;20346;52.702;16.886;2023-02-23T12:56:32;100598.34;;;7.34;70.89
34073;BME280;20346;52.702;16.886;2023-02-23T12:59:28;100596.80;;;7.36;70.95
34073;BME280;20346;52.702;16.886;2023-02-23T13:02:23;100588.91;;;7.36;70.89
34073;BME280;20346;52.702;16.886;2023-02-23T13:13:47;100564.73;;;7.35;70.89
34073;BME280;20346;52.702;16.886;2023-02-23T13:19:26;100560.44;;;7.35;70.81
34073;BME280;20346;52.702;16.886;2023-02-23T13:25:14;100555.46;;;7.35;70.89
34073;BME280;20346;52.702;16.886;2023-02-23T13:28:04;100552.20;;;7.38;70.88
34073;BME280;20346;52.702;16.886;2023-02-23T13:30:52;100549.11;;;7.39;70.84
34073;BME280;20346;52.702;16.886;2023-02-23T13:33:38;100549.96;;;7.39;70.83
34073;BME280;20346;52.702;16.886;2023-02-23T13:36:25;100550.81;;;7.42;70.87
34073;BME280;20346;52.702;16.886;2023-02-23T13:39:27;100548.23;;;7.45;70.90
34073;BME280;20346;52.702;16.886;2023-02-23T13:54:23;100533.29;;;7.49;70.74
34073;BME280;20346;52.702;16.886;2023-02-23T13:57:13;100526.08;;;7.50;70.77
34073;BME280;20346;52.702;16.886;2023-02-23T14:00:01;100527.63;;;7.51;70.71
34073;BME280;20346;52.702;16.886;2023-02-23T14:02:48;100527.28;;;7.50;70.72
34073;BME280;20346;52.702;16.886;2023-02-23T14:05:41;100525.55;;;7.54;70.79
34073;BME280;20346;52.702;16.886;2023-02-23T14:08:37;100522.29;;;7.54;70.61
34073;BME280;20346;52.702;16.886;2023-02-23T14:11:33;100513.39;;;7.51;70.61
34073;BME280;20346;52.702;16.886;2023-02-23T14:17:37;100514.09;;;7.46;70.64
34073;BME280;20346;52.702;16.886;2023-02-23T14:29:10;100499.58;;;7.33;70.64
34073;BME280;20346;52.702;16.886;2023-02-23T14:35:00;100495.34;;;7.27;70.75
34073;BME280;20346;52.702;16.886;2023-02-23T14:37:53;100491.42;;;7.23;70.66
34073;BME280;20346;52.702;16.886;2023-02-23T14:40:41;100492.96;;;7.22;70.67
34073;BME280;20346;52.702;16.886;2023-02-23T14:46:18;100492.80;;;7.22;70.81
34073;BME280;20346;52.702;16.886;2023-02-23T14:49:06;100488.85;;;7.23;70.73
34073;BME280;20346;52.702;16.886;2023-02-23T14:51:55;100497.08;;;7.23;70.67
34073;BME280;20346;52.702;16.886;2023-02-23T14:54:44;100495.20;;;7.20;70.74
34073;BME280;20346;52.702;16.886;2023-02-23T14:57:34;100495.04;;;7.20;70.71
34073;BME280;20346;52.702;16.886;2023-02-23T15:00:25;100491.61;;;7.19;70.66
34073;BME280;20346;52.702;16.886;2023-02-23T15:03:11;100489.72;;;7.19;70.74
34073;BME280;20346;52.702;16.886;2023-02-23T15:05:58;100488.70;;;7.17;70.72
34073;BME280;20346;52.702;16.886;2023-02-23T15:08:45;100486.13;;;7.17;70.77
34073;BME280;20346;52.702;16.886;2023-02-23T15:11:32;100484.94;;;7.17;70.77
34073;BME280;20346;52.702;16.886;2023-02-23T15:14:18;100479.27;;;7.15;70.78
34073;BME280;20346;52.702;16.886;2023-02-23T15:17:05;100475.86;;;7.15;70.79
34073;BME280;20346;52.702;16.886;2023-02-23T15:20:04;100476.02;;;7.14;70.78
34073;BME280;20346;52.702;16.886;2023-02-23T15:22:52;100474.32;;;7.14;70.83
34073;BME280;20346;52.702;16.886;2023-02-23T15:25:39;100471.92;;;7.13;70.89
34073;BME280;20346;52.702;16.886;2023-02-23T15:28:26;100471.59;;;7.12;70.83
34073;BME280;20346;52.702;16.886;2023-02-23T15:31:17;100467.81;;;7.11;70.84
34073;BME280;20346;52.702;16.886;2023-02-23T15:34:03;100461.83;;;7.09;70.87
34073;BME280;20346;52.702;16.886;2023-02-23T15:36:51;100450.01;;;7.08;70.95
34073;BME280;20346;52.702;16.886;2023-02-23T15:42:27;100445.38;;;7.07;70.92
34073;BME280;20346;52.702;16.886;2023-02-23T15:48:31;100436.48;;;7.05;70.91
34073;BME280;20346;52.702;16.886;2023-02-23T15:51:34;100431.35;;;7.04;71.00
34073;BME280;20346;52.702;16.886;2023-02-23T15:54:23;100423.80;;;7.02;70.92
34073;BME280;20346;52.702;16.886;2023-02-23T15:57:21;100423.82;;;6.99;71.01
34073;BME280;20346;52.702;16.886;2023-02-23T16:00:20;100417.32;;;6.96;71.01
34073;BME280;20346;52.702;16.886;2023-02-23T16:03:21;100414.23;;;6.95;71.07
34073;BME280;20346;52.702;16.886;2023-02-23T16:06:21;100416.30;;;6.92;71.04
34073;BME280;20346;52.702;16.886;2023-02-23T16:14:54;100406.05;;;6.85;71.10
34073;BME280;20346;52.702;16.886;2023-02-23T16:17:43;100409.15;;;6.83;71.13
34073;BME280;20346;52.702;16.886;2023-02-23T16:23:46;100410.52;;;6.80;71.15
34073;BME280;20346;52.702;16.886;2023-02-23T16:26:46;100411.22;;;6.80;71.18
34073;BME280;20346;52.702;16.886;2023-02-23T16:29:58;100410.88;;;6.78;71.17
34073;BME280;20346;52.702;16.886;2023-02-23T16:32:45;100414.48;;;6.77;71.21
34073;BME280;20346;52.702;16.886;2023-02-23T16:35:36;100411.77;;;6.76;71.14
34073;BME280;20346;52.702;16.886;2023-02-23T16:38:24;100404.41;;;6.75;71.17
34073;BME280;20346;52.702;16.886;2023-02-23T16:41:18;100405.96;;;6.73;71.23
34073;BME280;20346;52.702;16.886;2023-02-23T16:44:10;100406.65;;;6.72;71.25
34073;BME280;20346;52.702;16.886;2023-02-23T16:49:48;100404.61;;;6.69;71.22
34073;BME280;20346;52.702;16.886;2023-02-23T16:52:35;100397.42;;;6.66;71.26
34073;BME280;20346;52.702;16.886;2023-02-23T16:55:22;100399.65;;;6.64;71.30
34073;BME280;20346;52.702;16.886;2023-02-23T16:58:21;100404.29;;;6.61;71.35
34073;BME280;20346;52.702;16.886;2023-02-23T17:01:13;100403.61;;;6.58;71.31
34073;BME280;20346;52.702;16.886;2023-02-23T17:03:59;100401.39;;;6.55;71.36
34073;BME280;20346;52.702;16.886;2023-02-23T17:06:46;100402.94;;;6.52;71.34
34073;BME280;20346;52.702;16.886;2023-02-23T17:09:43;100399.18;;;6.48;71.35
34073;BME280;20346;52.702;16.886;2023-02-23T17:12:29;100396.98;;;6.44;71.32
34073;BME280;20346;52.702;16.886;2023-02-23T17:15:15;100396.98;;;6.41;71.36